Time;durP1;ratioP1;P1;durP2;ratioP2;P2;SDS_P1;SDS_P2;PMS_P1;PMS_P2;Temp;Humidity;BMP_temperature;BMP_pressure;BME280_temperature;BME280_humidity;BME280_pressure;Samples;Min_cycle;Max_cycle;Signal;HPM_P1;HPM_P2
2023/12/21 00:01:01;;;;;;;7.80;2.43;;;;;9.50;100511.00;;;;10426680;28;20805;-80
2023/12/21 00:06:02;;;;;;;13.17;2.40;;;;;9.50;100500.00;;;;10451433;28;20309;-80
2023/12/21 00:11:08;;;;;;;13.47;3.03;;;;;9.40;100481.00;;;;10422958;28;20249;-80
2023/12/21 00:16:09;;;;;;;7.60;2.20;;;;;9.40;100453.00;;;;10461886;28;20233;-80
2023/12/21 00:21:10;;;;;;;7.37;2.10;;;;;9.30;100448.00;;;;10426411;28;20217;-78
2023/12/21 00:26:12;;;;;;;11.27;2.60;;;;;9.40;100429.00;;;;10448230;28;20213;-78
2023/12/21 00:31:13;;;;;;;11.97;2.70;;;;;9.40;100423.00;;;;10423687;28;20643;-81
2023/12/21 00:36:17;;;;;;;7.77;2.30;;;;;9.40;100417.00;;;;10442217;28;20275;-80
2023/12/21 00:41:18;;;;;;;11.03;2.30;;;;;9.40;100401.00;;;;10428078;28;20217;-78
2023/12/21 00:46:20;;;;;;;10.03;2.57;;;;;9.40;100391.00;;;;10415820;28;20253;-79
2023/12/21 00:51:21;;;;;;;15.43;2.50;;;;;9.40;100381.00;;;;10432127;28;20221;-77
2023/12/21 00:56:22;;;;;;;13.17;3.57;;;;;9.40;100360.00;;;;10438507;28;20218;-78
2023/12/21 01:01:23;;;;;;;14.13;3.00;;;;;9.40;100362.00;;;;10416138;28;20279;-78
2023/12/21 01:06:24;;;;;;;10.97;3.03;;;;;9.40;100361.00;;;;10423290;28;20454;-78
2023/12/21 01:11:25;;;;;;;15.10;3.37;;;;;9.30;100373.00;;;;10439956;28;20248;-86
2023/12/21 01:16:26;;;;;;;15.13;3.33;;;;;9.30;100357.00;;;;10451064;28;20877;-86
2023/12/21 01:21:28;;;;;;;12.30;3.33;;;;;9.20;100337.00;;;;10436703;28;20245;-84
2023/12/21 01:26:29;;;;;;;17.03;3.03;;;;;9.20;100336.00;;;;10457680;28;20221;-86
2023/12/21 01:31:34;;;;;;;13.93;3.50;;;;;9.20;100356.00;;;;10463219;28;20221;-86
2023/12/21 01:36:35;;;;;;;12.80;3.50;;;;;9.30;100317.00;;;;10454895;28;20248;-84
2023/12/21 01:41:36;;;;;;;13.00;4.03;;;;;9.30;100293.00;;;;10431313;28;20222;-85
2023/12/21 01:46:38;;;;;;;17.20;3.83;;;;;9.30;100277.00;;;;10444748;28;20935;-85
2023/12/21 01:51:40;;;;;;;13.40;4.23;;;;;9.30;100285.00;;;;10454604;28;20221;-88
2023/12/21 01:56:42;;;;;;;15.13;3.67;;;;;9.30;100282.00;;;;10453679;28;20795;-84
2023/12/21 02:01:43;;;;;;;11.80;3.30;;;;;9.30;100277.00;;;;10444701;28;20217;-83
2023/12/21 02:06:45;;;;;;;19.57;3.80;;;;;9.30;100284.00;;;;10418533;28;20648;-83
2023/12/21 02:11:46;;;;;;;17.83;4.30;;;;;9.40;100282.00;;;;10422167;28;20222;-84
2023/12/21 02:16:59;;;;;;;16.33;4.03;;;;;9.40;100286.00;;;;10417142;28;20225;-82
2023/12/21 02:22:02;;;;;;;18.37;4.40;;;;;9.50;100272.00;;;;10417258;28;20209;-82
2023/12/21 02:27:04;;;;;;;23.67;4.43;;;;;9.50;100256.00;;;;10422719;28;20213;-82
2023/12/21 02:32:05;;;;;;;15.60;4.20;;;;;9.50;100252.00;;;;10415467;28;20266;-81
2023/12/21 02:37:07;;;;;;;17.67;3.77;;;;;9.50;100238.00;;;;10414790;28;20735;-81
2023/12/21 02:42:08;;;;;;;20.80;4.60;;;;;9.50;100238.00;;;;10415632;28;20307;-83
2023/12/21 02:47:09;;;;;;;17.93;4.37;;;;;9.50;100224.00;;;;10437803;28;20223;-81
2023/12/21 02:52:10;;;;;;;16.03;3.90;;;;;9.60;100223.00;;;;10437178;28;20574;-84
2023/12/21 02:57:11;;;;;;;22.40;3.97;;;;;9.60;100228.00;;;;10459323;28;20680;-83
2023/12/21 03:02:13;;;;;;;19.73;3.87;;;;;9.70;100215.00;;;;10442637;28;20320;-81
2023/12/21 03:07:14;;;;;;;19.93;3.83;;;;;9.70;100200.00;;;;10448103;28;20658;-82
2023/12/21 03:12:15;;;;;;;20.53;4.93;;;;;9.70;100184.00;;;;10428268;28;20775;-84
2023/12/21 03:17:16;;;;;;;16.43;4.07;;;;;9.70;100175.00;;;;10434836;28;20233;-80
2023/12/21 03:22:17;;;;;;;18.30;4.10;;;;;9.70;100172.00;;;;10421570;28;20226;-77
2023/12/21 03:27:25;;;;;;;19.13;4.40;;;;;9.70;100169.00;;;;10419674;28;20224;-78
2023/12/21 03:32:27;;;;;;;24.63;4.60;;;;;9.70;100144.00;;;;10419322;28;20875;-79
2023/12/21 03:37:29;;;;;;;23.73;5.53;;;;;9.70;100126.00;;;;10430614;28;20244;-77
2023/12/21 03:42:30;;;;;;;19.57;4.00;;;;;9.80;100111.00;;;;10440245;28;20848;-78
2023/12/21 03:47:31;;;;;;;18.47;3.90;;;;;9.80;100106.00;;;;10446358;28;20224;-79
2023/12/21 03:52:32;;;;;;;20.10;5.37;;;;;9.90;100083.00;;;;10434221;28;20229;-74
2023/12/21 03:57:34;;;;;;;21.73;4.50;;;;;9.90;100098.00;;;;10453609;28;20910;-76
2023/12/21 04:02:36;;;;;;;18.03;3.80;;;;;9.90;100088.00;;;;10422244;28;20225;-75
2023/12/21 04:07:37;;;;;;;15.70;4.10;;;;;10.00;100094.00;;;;10431265;28;20312;-75
2023/12/21 04:12:38;;;;;;;23.17;4.27;;;;;10.00;100073.00;;;;10421160;28;20218;-76
2023/12/21 04:17:40;;;;;;;13.90;3.47;;;;;10.00;100076.00;;;;10422837;28;20292;-77
2023/12/21 04:22:41;;;;;;;22.53;4.73;;;;;10.00;100078.00;;;;10432147;28;20213;-78
2023/12/21 04:27:43;;;;;;;16.53;3.67;;;;;10.00;100043.00;;;;10437419;28;20229;-77
2023/12/21 04:32:44;;;;;;;17.97;3.90;;;;;10.00;100033.00;;;;10442264;28;20221;-81
2023/12/21 04:37:45;;;;;;;14.47;3.40;;;;;10.00;100007.00;;;;10426537;28;20225;-83
2023/12/21 04:42:52;;;;;;;16.60;3.30;;;;;10.00;100016.00;;;;10454777;28;20305;-80
2023/12/21 04:47:53;;;;;;;14.30;4.07;;;;;10.00;100022.00;;;;10432792;28;20226;-83
2023/12/21 04:52:54;;;;;;;9.77;3.10;;;;;10.00;99995.00;;;;10420650;28;20667;-83
2023/12/21 04:57:55;;;;;;;20.03;4.10;;;;;10.10;100008.00;;;;10438857;28;20217;-83
2023/12/21 05:02:57;;;;;;;20.23;4.13;;;;;10.10;99983.00;;;;10446314;28;20229;-81
2023/12/21 05:07:58;;;;;;;15.13;4.00;;;;;10.10;99978.00;;;;10434080;28;20308;-80
2023/12/21 05:12:59;;;;;;;15.23;3.67;;;;;10.20;99981.00;;;;10440268;28;20301;-81
2023/12/21 05:18:02;;;;;;;17.03;4.10;;;;;10.20;99978.00;;;;10425270;28;20291;-81
2023/12/21 05:23:04;;;;;;;19.93;4.00;;;;;10.20;99963.00;;;;10431716;28;20222;-81
2023/12/21 05:28:05;;;;;;;11.87;3.37;;;;;10.20;99963.00;;;;10418057;28;20245;-81
2023/12/21 05:33:06;;;;;;;15.67;3.10;;;;;10.20;99949.00;;;;10419665;28;20936;-83
2023/12/21 05:38:07;;;;;;;15.67;3.70;;;;;10.30;99932.00;;;;10437381;28;20241;-85
2023/12/21 05:43:09;;;;;;;15.03;3.47;;;;;10.30;99931.00;;;;10440459;28;20240;-84
2023/12/21 05:48:10;;;;;;;28.60;4.70;;;;;10.30;99931.00;;;;10434049;28;20325;-85
2023/12/21 05:53:11;;;;;;;21.40;3.50;;;;;10.30;99919.00;;;;10441262;28;21057;-84
2023/12/21 05:58:12;;;;;;;13.83;4.00;;;;;10.30;99906.00;;;;10423691;28;20268;-84
2023/12/21 06:03:14;;;;;;;14.63;3.40;;;;;10.30;99888.00;;;;10422637;28;20222;-84
2023/12/21 06:08:15;;;;;;;16.27;3.30;;;;;10.40;99899.00;;;;10421270;28;20253;-84
2023/12/21 06:13:16;;;;;;;17.13;3.60;;;;;10.40;99920.00;;;;10455999;28;20285;-84
2023/12/21 06:18:17;;;;;;;15.37;3.70;;;;;10.40;99875.00;;;;10424837;28;20262;-85
2023/12/21 06:23:19;;;;;;;11.33;2.90;;;;;10.40;99896.00;;;;10425165;28;20217;-85
2023/12/21 06:28:22;;;;;;;10.17;2.40;;;;;10.50;99870.00;;;;10438159;28;20669;-84
2023/12/21 06:33:25;;;;;;;11.80;2.70;;;;;10.50;99849.00;;;;10453011;28;20220;-85
2023/12/21 06:38:27;;;;;;;11.00;2.37;;;;;10.50;99845.00;;;;10448001;28;20235;-86
2023/12/21 06:43:28;;;;;;;13.17;3.00;;;;;10.50;99845.00;;;;10428033;28;20301;-85
2023/12/21 06:48:29;;;;;;;13.40;3.00;;;;;10.50;99848.00;;;;10469373;28;20855;-76
2023/12/21 06:53:30;;;;;;;9.33;2.60;;;;;10.50;99860.00;;;;10420123;28;20307;-77
2023/12/21 06:58:33;;;;;;;8.83;2.43;;;;;10.50;99851.00;;;;10419925;28;20855;-78
2023/12/21 07:03:34;;;;;;;11.90;2.20;;;;;10.50;99838.00;;;;10417970;28;20260;-77
2023/12/21 07:08:35;;;;;;;13.20;3.00;;;;;10.50;99808.00;;;;10442890;28;20263;-78
2023/12/21 07:13:36;;;;;;;13.37;2.80;;;;;10.50;99821.00;;;;10467071;28;20621;-77
2023/12/21 07:18:37;;;;;;;7.80;1.97;;;;;10.50;99811.00;;;;10422804;28;20217;-78
2023/12/21 07:23:39;;;;;;;10.50;2.53;;;;;10.50;99812.00;;;;10424285;28;20315;-77
2023/12/21 07:28:40;;;;;;;8.73;2.60;;;;;10.60;99798.00;;;;10428193;28;20259;-79
2023/12/21 07:33:46;;;;;;;13.03;2.37;;;;;10.60;99791.00;;;;10447911;28;20575;-77
2023/12/21 07:38:48;;;;;;;10.83;2.57;;;;;10.70;99794.00;;;;10441376;28;20221;-78
2023/12/21 07:43:49;;;;;;;10.27;2.40;;;;;10.70;99777.00;;;;10419056;28;20218;-77
2023/12/21 07:48:50;;;;;;;8.63;2.37;;;;;10.70;99773.00;;;;10421358;28;20249;-77
2023/12/21 07:53:52;;;;;;;12.47;2.80;;;;;10.60;99758.00;;;;10428396;28;20221;-79
2023/12/21 07:58:54;;;;;;;8.60;2.50;;;;;10.50;99765.00;;;;10436158;28;20264;-80
2023/12/21 08:03:55;;;;;;;10.73;2.27;;;;;10.30;99762.00;;;;10438914;28;20221;-79
2023/12/21 08:08:56;;;;;;;11.60;3.30;;;;;10.20;99762.00;;;;10423933;28;20686;-79
2023/12/21 08:14:00;;;;;;;9.90;2.43;;;;;10.20;99751.00;;;;10444154;28;20218;-79
2023/12/21 08:19:02;;;;;;;5.10;2.20;;;;;10.20;99758.00;;;;10446645;28;20217;-80
2023/12/21 08:24:03;;;;;;;5.57;1.93;;;;;10.30;99743.00;;;;10445629;28;20213;-80
2023/12/21 08:29:04;;;;;;;7.57;1.80;;;;;10.40;99760.00;;;;10430593;28;20260;-80
2023/12/21 08:34:11;;;;;;;9.93;2.20;;;;;10.50;99749.00;;;;10439224;28;20312;-81
2023/12/21 08:39:12;;;;;;;8.93;1.97;;;;;10.60;99756.00;;;;10442283;28;20233;-81
2023/12/21 08:44:13;;;;;;;9.03;1.90;;;;;10.60;99735.00;;;;10422467;28;20758;-81
2023/12/21 08:49:15;;;;;;;8.07;2.13;;;;;10.70;99730.00;;;;10429058;28;20312;-80
2023/12/21 08:54:17;;;;;;;4.57;1.63;;;;;10.80;99713.00;;;;10435482;28;20229;-81
2023/12/21 08:59:19;;;;;;;6.47;1.73;;;;;10.90;99727.00;;;;10416464;28;20308;-80
2023/12/21 09:04:20;;;;;;;7.27;2.03;;;;;11.00;99706.00;;;;10405670;28;20683;-80
2023/12/21 09:09:22;;;;;;;7.47;1.93;;;;;11.10;99702.00;;;;10455394;28;20307;-80
2023/12/21 09:14:24;;;;;;;7.53;1.60;;;;;11.20;99711.00;;;;10410661;28;20895;-80
2023/12/21 09:19:27;;;;;;;4.60;1.50;;;;;11.20;99689.00;;;;10438201;28;20218;-80
2023/12/21 09:24:28;;;;;;;7.40;1.70;;;;;11.20;99697.00;;;;10441899;28;20232;-80
2023/12/21 09:29:30;;;;;;;4.07;1.40;;;;;11.30;99670.00;;;;10436144;28;20221;-80
2023/12/21 09:34:31;;;;;;;4.13;1.50;;;;;11.50;99691.00;;;;10421336;28;20692;-82
2023/12/21 09:39:33;;;;;;;4.07;1.57;;;;;11.60;99678.00;;;;10419701;28;20862;-81
2023/12/21 09:44:34;;;;;;;5.23;1.50;;;;;11.60;99691.00;;;;10430086;28;20224;-81
2023/12/21 09:49:36;;;;;;;3.83;1.23;;;;;11.70;99695.00;;;;10420268;28;20279;-80
2023/12/21 09:54:41;;;;;;;5.03;1.48;;;;;11.90;99694.00;;;;10412808;28;20222;-80
2023/12/21 09:59:42;;;;;;;4.30;1.20;;;;;12.00;99717.00;;;;10428372;28;20297;-80
2023/12/21 10:04:44;;;;;;;4.20;1.13;;;;;11.90;99705.00;;;;10433551;28;20874;-80
2023/12/21 10:09:45;;;;;;;5.45;1.55;;;;;11.90;99703.00;;;;10433657;28;20319;-80
2023/12/21 10:14:57;;;;;;;1.10;0.90;;;;;12.00;99711.00;;;;10378686;28;20257;-80
2023/12/21 10:19:59;;;;;;;3.33;0.98;;;;;12.00;99675.00;;;;10382211;28;20813;-85
2023/12/21 10:25:01;;;;;;;6.47;1.48;;;;;12.20;99659.00;;;;10407619;28;20235;-82
2023/12/21 10:30:04;;;;;;;3.70;1.48;;;;;12.30;99621.00;;;;10375861;28;20304;-82
2023/12/21 10:35:06;;;;;;;3.25;1.40;;;;;12.50;99681.00;;;;10371468;28;20228;-82
2023/12/21 10:40:09;;;;;;;5.22;1.35;;;;;12.50;99658.00;;;;10386175;28;20313;-84
2023/12/21 10:45:13;;;;;;;3.72;1.50;;;;;12.50;99636.00;;;;10395644;28;20903;-83
2023/12/21 10:50:30;;;;;;;4.00;1.30;;;;;12.70;99567.00;;;;10407511;28;20234;-82
2023/12/21 10:55:32;;;;;;;5.65;1.55;;;;;12.70;99643.00;;;;10395730;28;20219;-83
2023/12/21 11:00:34;;;;;;;3.38;1.58;;;;;12.70;99658.00;;;;10398417;28;20214;-81
2023/12/21 11:05:37;;;;;;;3.15;1.20;;;;;12.60;99658.00;;;;10381473;28;20219;-81
2023/12/21 11:10:38;;;;;;;5.38;1.10;;;;;12.50;99647.00;;;;10368531;28;20222;-82
2023/12/21 11:15:40;;;;;;;3.03;0.80;;;;;12.40;99640.00;;;;10367059;28;20218;-81
2023/12/21 11:20:48;;;;;;;4.05;1.02;;;;;12.20;99632.00;;;;10399464;28;20225;-82
2023/12/21 11:25:56;;;;;;;5.30;1.55;;;;;11.80;99626.00;;;;10393495;28;20257;-81
2023/12/21 11:30:58;;;;;;;4.13;1.20;;;;;11.70;99628.00;;;;10378882;28;20250;-82
2023/12/21 11:36:02;;;;;;;4.43;0.83;;;;;11.60;99628.00;;;;10403061;28;20233;-84
2023/12/21 11:41:04;;;;;;;5.50;1.03;;;;;11.50;99655.00;;;;10380648;28;20557;-83
2023/12/21 11:46:09;;;;;;;1.85;0.80;;;;;11.40;99642.00;;;;10377536;28;20225;-84
2023/12/21 11:51:10;;;;;;;3.63;1.00;;;;;11.40;99667.00;;;;10378066;28;20233;-82
2023/12/21 11:56:14;;;;;;;3.43;1.20;;;;;11.30;99665.00;;;;10373148;28;20268;-82
2023/12/21 12:01:25;;;;;;;5.40;1.30;;;;;11.30;99641.00;;;;10378399;28;20994;-84
2023/12/21 12:06:28;;;;;;;3.60;0.98;;;;;11.20;99630.00;;;;10384720;28;20248;-83
2023/12/21 12:11:29;;;;;;;1.35;0.70;;;;;11.20;99641.00;;;;10383220;28;20236;-80
2023/12/21 12:16:34;;;;;;;3.70;1.20;;;;;11.60;99616.00;;;;10414408;28;20224;-80
2023/12/21 12:21:36;;;;;;;4.53;1.23;;;;;11.70;99609.00;;;;10380815;28;20218;-80
2023/12/21 12:26:37;;;;;;;3.65;0.88;;;;;11.70;99577.00;;;;10381109;28;20242;-82
2023/12/21 12:31:39;;;;;;;5.30;1.10;;;;;11.70;99583.00;;;;10397204;28;20225;-81
2023/12/21 12:36:40;;;;;;;3.47;1.45;;;;;11.80;99583.00;;;;10392099;28;20975;-80
2023/12/21 12:41:41;;;;;;;6.00;1.63;;;;;11.90;99587.00;;;;10391338;28;20331;-81
2023/12/21 12:46:43;;;;;;;2.67;1.20;;;;;12.10;99582.00;;;;10382217;28;20222;-80
2023/12/21 12:51:44;;;;;;;7.53;1.52;;;;;12.10;99582.00;;;;10395025;28;20223;-78
2023/12/21 12:56:46;;;;;;;4.93;1.35;;;;;12.10;99574.00;;;;10384534;28;20324;-78
2023/12/21 13:01:48;;;;;;;4.55;1.30;;;;;11.90;99546.00;;;;10378903;28;20254;-77
2023/12/21 13:06:49;;;;;;;4.22;1.45;;;;;11.60;99567.00;;;;10373927;28;20226;-79
2023/12/21 13:11:50;;;;;;;4.23;1.43;;;;;11.50;99563.00;;;;10386001;28;20297;-76
2023/12/21 13:16:52;;;;;;;3.95;1.20;;;;;11.60;99575.00;;;;10375526;28;20280;-79
2023/12/21 13:21:53;;;;;;;3.42;1.13;;;;;11.80;99549.00;;;;10398031;28;20217;-79
2023/12/21 13:26:54;;;;;;;4.22;1.00;;;;;11.90;99571.00;;;;10395296;28;20218;-79
2023/12/21 13:31:56;;;;;;;5.30;1.53;;;;;12.00;99600.00;;;;10380330;28;20221;-81
2023/12/21 13:36:58;;;;;;;6.32;1.38;;;;;12.10;99569.00;;;;10396892;28;20218;-77
2023/12/21 13:41:59;;;;;;;2.75;1.20;;;;;11.90;99573.00;;;;10375791;28;20222;-80
2023/12/21 13:47:01;;;;;;;5.97;1.40;;;;;11.90;99578.00;;;;10376931;28;20223;-80
2023/12/21 13:52:04;;;;;;;3.35;1.08;;;;;11.70;99581.00;;;;10379519;28;20225;-77
2023/12/21 13:57:05;;;;;;;7.57;1.60;;;;;11.60;99603.00;;;;10394077;28;20222;-77
2023/12/21 14:02:15;;;;;;;7.78;2.05;;;;;11.80;99584.00;;;;10415579;28;21028;-80
2023/12/21 14:07:16;;;;;;;5.37;1.13;;;;;11.80;99587.00;;;;10390550;28;20280;-82
2023/12/21 14:12:18;;;;;;;3.17;1.23;;;;;11.60;99578.00;;;;10395406;28;20226;-80
2023/12/21 14:17:19;;;;;;;6.43;1.23;;;;;11.60;99607.00;;;;10384910;28;20237;-82
2023/12/21 14:22:22;;;;;;;4.72;1.75;;;;;11.60;99606.00;;;;10384061;28;20219;-83
2023/12/21 14:27:23;;;;;;;5.17;1.67;;;;;11.50;99593.00;;;;10394952;28;20230;-80
2023/12/21 14:32:24;;;;;;;3.90;1.27;;;;;11.40;99587.00;;;;10391772;28;20214;-84
2023/12/21 14:37:26;;;;;;;4.10;1.20;;;;;11.30;99522.00;;;;10382170;28;20218;-84
2023/12/21 14:42:27;;;;;;;1.40;0.80;;;;;11.10;99581.00;;;;10378720;28;20210;-81
2023/12/21 14:47:30;;;;;;;4.27;1.30;;;;;11.00;99593.00;;;;10409089;28;20222;-84
2023/12/21 14:52:31;;;;;;;4.17;1.00;;;;;11.00;99583.00;;;;10392063;28;20219;-83
2023/12/21 14:57:32;;;;;;;3.67;1.10;;;;;11.00;99594.00;;;;10380763;28;20226;-83
2023/12/21 15:02:34;;;;;;;1.77;0.70;;;;;11.00;99582.00;;;;10404090;28;20982;-83
2023/12/21 15:07:36;;;;;;;2.33;0.80;;;;;10.90;99604.00;;;;10398545;28;20644;-83
2023/12/21 15:12:38;;;;;;;1.57;0.80;;;;;10.90;99610.00;;;;10379633;28;20688;-79
2023/12/21 15:17:39;;;;;;;4.10;1.03;;;;;11.00;99619.00;;;;10384465;28;20228;-80
2023/12/21 15:22:40;;;;;;;8.30;2.10;;;;;11.00;99581.00;;;;10388640;28;20351;-82
2023/12/21 15:27:41;;;;;;;5.27;1.40;;;;;11.10;99627.00;;;;10384815;28;20288;-81
2023/12/21 15:32:43;;;;;;;6.03;1.50;;;;;11.10;99631.00;;;;10380987;28;20886;-81
2023/12/21 15:37:44;;;;;;;4.80;1.70;;;;;11.00;99648.00;;;;10380763;28;20219;-81
2023/12/21 15:42:46;;;;;;;6.80;1.80;;;;;11.00;99657.00;;;;10396699;28;20245;-81
2023/12/21 15:47:49;;;;;;;9.03;2.03;;;;;11.00;99666.00;;;;10372594;28;20284;-80
2023/12/21 15:52:50;;;;;;;2.87;1.13;;;;;11.00;99639.00;;;;10384910;28;20236;-82
2023/12/21 15:57:52;;;;;;;7.57;1.47;;;;;11.00;99618.00;;;;10386561;28;20225;-81
2023/12/21 16:02:53;;;;;;;8.03;2.20;;;;;11.00;99675.00;;;;10386332;28;20217;-80
2023/12/21 16:07:54;;;;;;;7.07;1.80;;;;;10.90;99656.00;;;;10377801;28;20218;-80
2023/12/21 16:12:56;;;;;;;10.90;1.87;;;;;10.80;99653.00;;;;10389323;28;20238;-80
2023/12/21 16:17:57;;;;;;;10.60;1.57;;;;;10.70;99640.00;;;;10379476;28;20847;-81
2023/12/21 16:23:00;;;;;;;6.90;1.90;;;;;10.70;99654.00;;;;10396398;28;20214;-76
2023/12/21 16:28:01;;;;;;;12.40;1.83;;;;;10.70;99658.00;;;;10394233;28;20221;-78
2023/12/21 16:33:03;;;;;;;6.63;1.60;;;;;10.70;99662.00;;;;10407477;28;20325;-78
2023/12/21 16:38:05;;;;;;;10.73;2.20;;;;;10.70;99671.00;;;;10401584;28;20222;-76
2023/12/21 16:43:06;;;;;;;9.07;1.97;;;;;10.60;99672.00;;;;10379466;28;20306;-75
2023/12/21 16:48:07;;;;;;;7.83;1.50;;;;;10.60;99672.00;;;;10374707;28;20237;-80
2023/12/21 16:53:09;;;;;;;7.83;1.97;;;;;10.70;99695.00;;;;10375829;28;20298;-76
2023/12/21 16:58:10;;;;;;;5.93;2.07;;;;;10.80;99686.00;;;;10402804;28;20268;-76
2023/12/21 17:03:12;;;;;;;5.57;1.80;;;;;10.70;99692.00;;;;10392646;28;20325;-76
2023/12/21 17:08:13;;;;;;;8.37;1.90;;;;;10.70;99710.00;;;;10390362;28;20242;-77
2023/12/21 17:13:14;;;;;;;5.20;2.10;;;;;10.70;99710.00;;;;10382145;28;20225;-76
2023/12/21 17:18:15;;;;;;;5.13;1.50;;;;;10.80;99712.00;;;;10382070;28;20611;-75
2023/12/21 17:23:17;;;;;;;3.40;1.17;;;;;10.70;99727.00;;;;10416530;28;20226;-76
2023/12/21 17:28:19;;;;;;;7.83;1.53;;;;;10.80;99730.00;;;;10394221;28;20337;-88
2023/12/21 17:33:21;;;;;;;3.90;1.70;;;;;10.90;99740.00;;;;10402727;28;20217;-85
2023/12/21 17:38:22;;;;;;;4.13;1.10;;;;;10.90;99743.00;;;;10389919;28;20226;-87
2023/12/21 17:43:24;;;;;;;7.70;2.33;;;;;11.00;99739.00;;;;10390489;28;20218;-86
2023/12/21 17:48:25;;;;;;;4.53;1.30;;;;;11.10;99746.00;;;;10388446;28;20222;-85
2023/12/21 17:53:26;;;;;;;9.60;2.27;;;;;11.10;99768.00;;;;10378571;28;20888;-84
2023/12/21 17:58:28;;;;;;;5.50;1.20;;;;;11.10;99786.00;;;;10392471;28;20221;-86
2023/12/21 18:03:29;;;;;;;7.97;2.17;;;;;11.10;99746.00;;;;10394221;28;20210;-86
2023/12/21 18:08:30;;;;;;;9.20;1.70;;;;;11.20;99792.00;;;;10371556;28;20237;-88
2023/12/21 18:13:32;;;;;;;5.10;1.20;;;;;11.20;99779.00;;;;10396250;28;20214;-87
2023/12/21 18:18:33;;;;;;;6.67;1.87;;;;;11.20;99808.00;;;;10376458;28;20941;-86
2023/12/21 18:23:35;;;;;;;7.17;1.60;;;;;11.20;99794.00;;;;10409351;28;20238;-86
2023/12/21 18:28:36;;;;;;;7.07;1.87;;;;;11.20;99792.00;;;;10385869;28;20222;-88
2023/12/21 18:33:38;;;;;;;5.47;1.83;;;;;11.10;99796.00;;;;10417250;28;20237;-88
2023/12/21 18:38:43;;;;;;;3.80;1.70;;;;;11.00;99817.00;;;;10383066;28;20210;-82
2023/12/21 18:43:44;;;;;;;2.57;1.50;;;;;10.90;99819.00;;;;10380203;28;20252;-80
2023/12/21 18:48:45;;;;;;;13.60;1.80;;;;;10.70;99831.00;;;;10374241;28;20250;-82
2023/12/21 18:53:47;;;;;;;3.03;1.77;;;;;10.70;99806.00;;;;10381867;28;20218;-81
2023/12/21 18:58:48;;;;;;;13.23;2.37;;;;;10.00;99850.00;;;;10396685;28;20241;-80
2023/12/21 19:03:49;;;;;;;15.30;3.47;;;;;9.70;99838.00;;;;10387591;28;20225;-79
2023/12/21 19:08:51;;;;;;;8.67;2.33;;;;;9.60;99840.00;;;;10373803;28;20221;-79
2023/12/21 19:13:52;;;;;;;7.07;2.27;;;;;9.80;99827.00;;;;10376586;28;20365;-78
2023/12/21 19:18:54;;;;;;;9.57;2.10;;;;;10.00;99840.00;;;;10395368;28;20866;-80
2023/12/21 19:23:55;;;;;;;12.67;2.83;;;;;10.00;99856.00;;;;10387421;28;20281;-81
2023/12/21 19:28:57;;;;;;;7.10;1.77;;;;;10.20;99831.00;;;;10391208;28;20743;-79
2023/12/21 19:33:58;;;;;;;8.73;2.30;;;;;10.40;99886.00;;;;10408696;28;20276;-80
2023/12/21 19:39:00;;;;;;;11.63;2.13;;;;;10.30;99886.00;;;;10385958;28;20321;-80
2023/12/21 19:44:02;;;;;;;12.30;2.70;;;;;10.30;99906.00;;;;10379915;28;20218;-80
2023/12/21 19:49:03;;;;;;;16.33;2.40;;;;;10.30;99889.00;;;;10377201;28;20234;-82
2023/12/21 19:54:05;;;;;;;12.77;2.60;;;;;10.30;99845.00;;;;10389500;28;20222;-79
2023/12/21 19:59:06;;;;;;;15.90;3.57;;;;;10.30;99885.00;;;;10400280;28;20292;-79
2023/12/21 20:04:09;;;;;;;13.70;4.07;;;;;10.00;99896.00;;;;10393551;28;20321;-79
2023/12/21 20:09:14;;;;;;;15.67;3.23;;;;;10.00;99914.00;;;;10401997;28;20230;-80
2023/12/21 20:14:16;;;;;;;15.67;3.00;;;;;9.80;99905.00;;;;10393400;28;20298;-82
2023/12/21 20:19:19;;;;;;;18.70;3.83;;;;;9.10;99891.00;;;;10387116;28;20218;-85
2023/12/21 20:24:21;;;;;;;14.10;3.53;;;;;8.90;99921.00;;;;10384422;28;20226;-84
2023/12/21 20:29:22;;;;;;;14.30;3.90;;;;;8.80;99923.00;;;;10387130;28;20264;-84
2023/12/21 20:34:23;;;;;;;12.63;3.47;;;;;9.10;99913.00;;;;10399818;28;20466;-83
2023/12/21 20:39:25;;;;;;;19.70;3.43;;;;;9.50;99925.00;;;;10383095;28;20236;-82
2023/12/21 20:44:26;;;;;;;17.73;3.97;;;;;9.70;99941.00;;;;10377504;28;20269;-81
2023/12/21 20:49:27;;;;;;;12.40;3.40;;;;;9.60;99944.00;;;;10400646;28;20245;-83
2023/12/21 20:54:32;;;;;;;16.33;2.50;;;;;9.60;99944.00;;;;10390833;28;20795;-83
2023/12/21 20:59:36;;;;;;;14.33;2.90;;;;;9.70;99963.00;;;;10417534;28;20221;-80
2023/12/21 21:04:37;;;;;;;14.03;2.40;;;;;9.30;99972.00;;;;10401448;28;20254;-81
2023/12/21 21:09:39;;;;;;;10.33;2.83;;;;;9.40;99932.00;;;;10371782;28;20222;-79
2023/12/21 21:14:40;;;;;;;15.60;2.90;;;;;9.60;99990.00;;;;10381991;28;20225;-80
2023/12/21 21:19:41;;;;;;;10.80;2.63;;;;;9.60;100001.00;;;;10395702;28;20225;-80
2023/12/21 21:24:42;;;;;;;13.93;2.30;;;;;9.60;100007.00;;;;10392018;28;20221;-79
2023/12/21 21:29:44;;;;;;;10.50;1.90;;;;;9.60;99995.00;;;;10386872;28;20225;-78
2023/12/21 21:34:45;;;;;;;9.17;2.53;;;;;9.70;100000.00;;;;10371637;28;20602;-78
2023/12/21 21:39:46;;;;;;;9.93;2.10;;;;;9.50;99990.00;;;;10372073;28;20214;-80
2023/12/21 21:44:47;;;;;;;7.30;2.07;;;;;9.00;99996.00;;;;10386613;28;20249;-80
2023/12/21 21:49:48;;;;;;;10.00;2.37;;;;;8.70;100000.00;;;;10390804;28;20246;-80
2023/12/21 21:54:51;;;;;;;7.47;2.43;;;;;8.90;99972.00;;;;10399901;28;20219;-80
2023/12/21 21:59:52;;;;;;;6.20;1.77;;;;;9.20;100006.00;;;;10372974;28;20704;-80
2023/12/21 22:04:53;;;;;;;13.67;3.53;;;;;9.30;100005.00;;;;10380738;28;20218;-80
2023/12/21 22:09:55;;;;;;;16.60;3.33;;;;;9.20;100020.00;;;;10370335;28;20727;-78
2023/12/21 22:14:56;;;;;;;10.83;2.13;;;;;9.20;100031.00;;;;10391080;28;20301;-80
2023/12/21 22:19:57;;;;;;;9.80;2.77;;;;;9.40;100042.00;;;;10379169;28;20244;-79
2023/12/21 22:24:58;;;;;;;13.80;3.00;;;;;9.50;100037.00;;;;10395001;28;20214;-76
2023/12/21 22:29:59;;;;;;;18.43;2.90;;;;;9.50;100031.00;;;;10409004;28;20253;-75
2023/12/21 22:35:03;;;;;;;9.33;2.37;;;;;9.50;100029.00;;;;10387282;28;20299;-77
2023/12/21 22:40:05;;;;;;;14.00;2.97;;;;;9.50;100048.00;;;;10394661;28;20225;-76
2023/12/21 22:45:06;;;;;;;13.83;3.43;;;;;9.40;100035.00;;;;10392351;28;20236;-77
2023/12/21 22:50:08;;;;;;;16.60;3.20;;;;;9.50;100051.00;;;;10371678;28;20956;-74
2023/12/21 22:55:09;;;;;;;16.80;3.20;;;;;9.50;100057.00;;;;10375487;28;20222;-79
2023/12/21 23:00:21;;;;;;;10.73;3.07;;;;;9.50;100057.00;;;;10390090;28;20269;-76
2023/12/21 23:05:22;;;;;;;13.60;3.13;;;;;9.50;100021.00;;;;10385977;28;20802;-77
2023/12/21 23:10:24;;;;;;;11.03;2.73;;;;;9.30;100015.00;;;;10390052;28;20230;-76
2023/12/21 23:15:25;;;;;;;24.30;4.50;;;;;9.00;100017.00;;;;10365468;28;20244;-75
2023/12/21 23:20:27;;;;;;;13.77;3.10;;;;;9.00;100036.00;;;;10375075;28;20569;-76
2023/12/21 23:25:28;;;;;;;12.77;3.50;;;;;9.10;100030.00;;;;10403567;28;20257;-77
2023/12/21 23:30:29;;;;;;;27.40;5.93;;;;;9.20;100051.00;;;;10380515;28;20219;-80
2023/12/21 23:35:30;;;;;;;15.77;3.33;;;;;9.20;100032.00;;;;10385051;28;20234;-81
2023/12/21 23:40:31;;;;;;;20.57;3.07;;;;;9.30;100056.00;;;;10390556;28;20222;-81
2023/12/21 23:45:32;;;;;;;14.80;4.00;;;;;9.40;100057.00;;;;10392741;28;20245;-79
2023/12/21 23:50:34;;;;;;;12.67;2.87;;;;;9.50;100051.00;;;;10407567;28;20309;-81
2023/12/21 23:55:35;;;;;;;15.00;3.03;;;;;9.50;100056.00;;;;10407703;28;20742;-80
